sensor_id;sensor_type;location;lat;lon;timestamp;temperature;humidity
20504;DHT22;10410;51.046;6.980;2023-12-14T00:05:40;8.40;99.90
20504;DHT22;10410;51.046;6.980;2023-12-14T00:12:40;8.30;99.90
20504;DHT22;10410;51.046;6.980;2023-12-14T00:19:41;8.20;99.90
20504;DHT22;10410;51.046;6.980;2023-12-14T00:26:42;8.20;99.90
20504;DHT22;10410;51.046;6.980;2023-12-14T00:33:43;8.20;99.90
20504;DHT22;10410;51.046;6.980;2023-12-14T00:40:45;8.20;99.90
20504;DHT22;10410;51.046;6.980;2023-12-14T00:47:45;8.10;99.90
20504;DHT22;10410;51.046;6.980;2023-12-14T00:54:46;8.20;99.90
20504;DHT22;10410;51.046;6.980;2023-12-14T01:01:46;8.20;99.90
20504;DHT22;10410;51.046;6.980;2023-12-14T01:08:46;8.30;99.90
20504;DHT22;10410;51.046;6.980;2023-12-14T01:15:47;8.20;99.90
20504;DHT22;10410;51.046;6.980;2023-12-14T01:22:48;8.20;99.90
20504;DHT22;10410;51.046;6.980;2023-12-14T01:29:48;8.20;99.90
20504;DHT22;10410;51.046;6.980;2023-12-14T01:36:49;8.20;99.90
20504;DHT22;10410;51.046;6.980;2023-12-14T01:43:49;8.20;99.90
20504;DHT22;10410;51.046;6.980;2023-12-14T01:50:50;8.20;99.90
20504;DHT22;10410;51.046;6.980;2023-12-14T01:57:51;8.20;99.90
20504;DHT22;10410;51.046;6.980;2023-12-14T02:04:51;8.20;99.90
20504;DHT22;10410;51.046;6.980;2023-12-14T02:11:52;8.20;99.90
20504;DHT22;10410;51.046;6.980;2023-12-14T02:18:53;8.20;99.90
20504;DHT22;10410;51.046;6.980;2023-12-14T02:25:54;8.20;99.90
20504;DHT22;10410;51.046;6.980;2023-12-14T02:32:54;8.20;99.90
20504;DHT22;10410;51.046;6.980;2023-12-14T02:39:55;8.10;99.90
20504;DHT22;10410;51.046;6.980;2023-12-14T02:46:55;8.00;99.90
20504;DHT22;10410;51.046;6.980;2023-12-14T02:53:56;7.90;99.90
20504;DHT22;10410;51.046;6.980;2023-12-14T03:00:57;7.90;99.90
20504;DHT22;10410;51.046;6.980;2023-12-14T03:07:58;7.80;99.90
20504;DHT22;10410;51.046;6.980;2023-12-14T03:14:58;7.70;99.90
20504;DHT22;10410;51.046;6.980;2023-12-14T03:21:59;7.60;99.90
20504;DHT22;10410;51.046;6.980;2023-12-14T03:28:59;7.60;99.90
20504;DHT22;10410;51.046;6.980;2023-12-14T03:36:00;7.50;99.90
20504;DHT22;10410;51.046;6.980;2023-12-14T03:43:00;7.50;99.90
20504;DHT22;10410;51.046;6.980;2023-12-14T03:50:00;7.40;99.90
20504;DHT22;10410;51.046;6.980;2023-12-14T03:57:01;7.30;99.90
20504;DHT22;10410;51.046;6.980;2023-12-14T04:04:01;7.30;99.90
20504;DHT22;10410;51.046;6.980;2023-12-14T04:11:02;7.20;99.90
20504;DHT22;10410;51.046;6.980;2023-12-14T04:18:02;7.20;99.90
20504;DHT22;10410;51.046;6.980;2023-12-14T04:25:03;7.20;99.90
20504;DHT22;10410;51.046;6.980;2023-12-14T04:32:04;7.10;99.90
20504;DHT22;10410;51.046;6.980;2023-12-14T04:39:05;7.10;99.90
20504;DHT22;10410;51.046;6.980;2023-12-14T04:46:05;7.00;99.90
20504;DHT22;10410;51.046;6.980;2023-12-14T04:53:06;7.00;99.90
20504;DHT22;10410;51.046;6.980;2023-12-14T05:00:07;6.90;99.90
20504;DHT22;10410;51.046;6.980;2023-12-14T05:07:08;6.80;99.90
20504;DHT22;10410;51.046;6.980;2023-12-14T05:14:08;6.80;99.90
20504;DHT22;10410;51.046;6.980;2023-12-14T05:21:09;6.70;99.90
20504;DHT22;10410;51.046;6.980;2023-12-14T05:28:10;6.70;99.90
20504;DHT22;10410;51.046;6.980;2023-12-14T05:35:10;6.70;99.90
20504;DHT22;10410;51.046;6.980;2023-12-14T05:42:11;6.70;99.90
20504;DHT22;10410;51.046;6.980;2023-12-14T05:49:12;6.60;99.90
20504;DHT22;10410;51.046;6.980;2023-12-14T05:56:12;6.60;99.90
20504;DHT22;10410;51.046;6.980;2023-12-14T06:03:12;6.60;99.90
20504;DHT22;10410;51.046;6.980;2023-12-14T06:10:13;6.50;99.90
20504;DHT22;10410;51.046;6.980;2023-12-14T06:17:13;6.40;99.90
20504;DHT22;10410;51.046;6.980;2023-12-14T06:24:14;6.30;99.90
20504;DHT22;10410;51.046;6.980;2023-12-14T06:31:15;6.30;99.90
20504;DHT22;10410;51.046;6.980;2023-12-14T06:38:16;6.30;99.90
20504;DHT22;10410;51.046;6.980;2023-12-14T06:45:16;6.30;99.90
20504;DHT22;10410;51.046;6.980;2023-12-14T06:52:17;6.30;99.90
20504;DHT22;10410;51.046;6.980;2023-12-14T06:59:17;6.30;99.90
20504;DHT22;10410;51.046;6.980;2023-12-14T07:06:19;6.30;99.90
20504;DHT22;10410;51.046;6.980;2023-12-14T07:13:20;6.40;99.90
20504;DHT22;10410;51.046;6.980;2023-12-14T07:20:21;6.40;99.90
20504;DHT22;10410;51.046;6.980;2023-12-14T07:27:21;6.50;99.90
20504;DHT22;10410;51.046;6.980;2023-12-14T07:34:22;6.50;99.90
20504;DHT22;10410;51.046;6.980;2023-12-14T07:41:22;6.50;99.90
20504;DHT22;10410;51.046;6.980;2023-12-14T07:48:29;6.40;99.90
20504;DHT22;10410;51.046;6.980;2023-12-14T07:55:30;6.30;99.90
20504;DHT22;10410;51.046;6.980;2023-12-14T08:02:32;6.30;99.90
20504;DHT22;10410;51.046;6.980;2023-12-14T08:09:32;6.20;99.90
20504;DHT22;10410;51.046;6.980;2023-12-14T08:16:33;6.10;99.90
20504;DHT22;10410;51.046;6.980;2023-12-14T08:23:33;6.10;99.90
20504;DHT22;10410;51.046;6.980;2023-12-14T08:30:34;6.10;99.90
20504;DHT22;10410;51.046;6.980;2023-12-14T08:37:35;6.10;99.90
20504;DHT22;10410;51.046;6.980;2023-12-14T08:44:41;6.10;99.90
20504;DHT22;10410;51.046;6.980;2023-12-14T08:51:41;6.10;99.90
20504;DHT22;10410;51.046;6.980;2023-12-14T08:58:42;6.10;99.90
20504;DHT22;10410;51.046;6.980;2023-12-14T09:05:43;6.00;99.90
20504;DHT22;10410;51.046;6.980;2023-12-14T09:12:44;6.00;99.90
20504;DHT22;10410;51.046;6.980;2023-12-14T09:19:44;5.90;99.90
20504;DHT22;10410;51.046;6.980;2023-12-14T09:26:44;5.80;99.90
20504;DHT22;10410;51.046;6.980;2023-12-14T09:33:45;5.80;99.90
20504;DHT22;10410;51.046;6.980;2023-12-14T09:40:45;5.90;99.90
20504;DHT22;10410;51.046;6.980;2023-12-14T09:47:46;5.90;99.90
20504;DHT22;10410;51.046;6.980;2023-12-14T09:54:47;5.80;99.90
20504;DHT22;10410;51.046;6.980;2023-12-14T10:01:47;5.80;99.90
20504;DHT22;10410;51.046;6.980;2023-12-14T10:08:55;5.80;99.90
20504;DHT22;10410;51.046;6.980;2023-12-14T10:15:59;5.80;99.90
20504;DHT22;10410;51.046;6.980;2023-12-14T10:22:59;5.80;99.90
20504;DHT22;10410;51.046;6.980;2023-12-14T10:30:01;5.80;99.90
20504;DHT22;10410;51.046;6.980;2023-12-14T10:37:05;5.80;99.90
20504;DHT22;10410;51.046;6.980;2023-12-14T10:44:06;5.80;99.90
20504;DHT22;10410;51.046;6.980;2023-12-14T10:51:28;5.70;99.90
20504;DHT22;10410;51.046;6.980;2023-12-14T10:58:50;5.70;99.90
20504;DHT22;10410;51.046;6.980;2023-12-14T11:05:51;5.70;99.90
20504;DHT22;10410;51.046;6.980;2023-12-14T11:13:01;5.60;99.90
20504;DHT22;10410;51.046;6.980;2023-12-14T11:20:24;5.60;99.90
20504;DHT22;10410;51.046;6.980;2023-12-14T11:27:31;5.70;99.90
20504;DHT22;10410;51.046;6.980;2023-12-14T11:34:33;5.70;99.90
20504;DHT22;10410;51.046;6.980;2023-12-14T11:41:34;5.70;99.90
20504;DHT22;10410;51.046;6.980;2023-12-14T11:48:35;5.70;99.90
20504;DHT22;10410;51.046;6.980;2023-12-14T11:55:37;5.60;99.90
20504;DHT22;10410;51.046;6.980;2023-12-14T12:02:38;5.50;99.90
20504;DHT22;10410;51.046;6.980;2023-12-14T12:09:44;5.50;99.90
20504;DHT22;10410;51.046;6.980;2023-12-14T12:16:44;5.50;99.90
20504;DHT22;10410;51.046;6.980;2023-12-14T12:23:45;5.50;99.90
20504;DHT22;10410;51.046;6.980;2023-12-14T12:30:45;5.50;99.90
20504;DHT22;10410;51.046;6.980;2023-12-14T12:37:46;5.50;99.90
20504;DHT22;10410;51.046;6.980;2023-12-14T12:44:47;5.60;99.90
20504;DHT22;10410;51.046;6.980;2023-12-14T12:51:47;5.60;99.90
20504;DHT22;10410;51.046;6.980;2023-12-14T12:58:48;5.70;99.90
20504;DHT22;10410;51.046;6.980;2023-12-14T13:05:50;5.70;99.90
20504;DHT22;10410;51.046;6.980;2023-12-14T13:12:50;5.70;99.90
20504;DHT22;10410;51.046;6.980;2023-12-14T13:19:52;5.70;99.90
20504;DHT22;10410;51.046;6.980;2023-12-14T13:26:52;5.70;99.90
20504;DHT22;10410;51.046;6.980;2023-12-14T13:33:52;5.60;99.90
20504;DHT22;10410;51.046;6.980;2023-12-14T13:40:54;5.60;99.90
20504;DHT22;10410;51.046;6.980;2023-12-14T13:47:54;5.60;99.90
20504;DHT22;10410;51.046;6.980;2023-12-14T13:54:55;5.50;99.90
20504;DHT22;10410;51.046;6.980;2023-12-14T14:01:56;5.50;99.90
20504;DHT22;10410;51.046;6.980;2023-12-14T14:08:56;5.50;99.90
20504;DHT22;10410;51.046;6.980;2023-12-14T14:15:57;5.40;99.90
20504;DHT22;10410;51.046;6.980;2023-12-14T14:22:57;5.40;99.90
20504;DHT22;10410;51.046;6.980;2023-12-14T14:30:00;5.30;99.90
20504;DHT22;10410;51.046;6.980;2023-12-14T14:37:00;5.30;99.90
20504;DHT22;10410;51.046;6.980;2023-12-14T14:44:01;5.30;99.90
20504;DHT22;10410;51.046;6.980;2023-12-14T14:51:01;5.30;99.90
20504;DHT22;10410;51.046;6.980;2023-12-14T14:58:02;5.10;99.90
20504;DHT22;10410;51.046;6.980;2023-12-14T15:05:02;5.10;99.90
20504;DHT22;10410;51.046;6.980;2023-12-14T15:12:03;5.00;99.90
20504;DHT22;10410;51.046;6.980;2023-12-14T15:19:04;4.90;99.90
20504;DHT22;10410;51.046;6.980;2023-12-14T15:26:05;4.90;99.90
20504;DHT22;10410;51.046;6.980;2023-12-14T15:33:08;4.90;99.90
20504;DHT22;10410;51.046;6.980;2023-12-14T15:40:09;4.80;99.90
20504;DHT22;10410;51.046;6.980;2023-12-14T15:47:12;4.90;99.90
20504;DHT22;10410;51.046;6.980;2023-12-14T15:54:12;5.00;99.90
20504;DHT22;10410;51.046;6.980;2023-12-14T16:01:13;4.90;99.90
20504;DHT22;10410;51.046;6.980;2023-12-14T16:08:16;4.90;99.90
20504;DHT22;10410;51.046;6.980;2023-12-14T16:15:17;4.90;99.90
20504;DHT22;10410;51.046;6.980;2023-12-14T16:22:17;5.00;99.90
20504;DHT22;10410;51.046;6.980;2023-12-14T16:29:18;4.90;99.90
20504;DHT22;10410;51.046;6.980;2023-12-14T16:36:18;4.90;99.90
20504;DHT22;10410;51.046;6.980;2023-12-14T16:43:19;4.90;99.90
20504;DHT22;10410;51.046;6.980;2023-12-14T16:50:21;4.90;99.90
20504;DHT22;10410;51.046;6.980;2023-12-14T16:57:22;4.90;99.90
20504;DHT22;10410;51.046;6.980;2023-12-14T17:04:22;4.90;99.90
20504;DHT22;10410;51.046;6.980;2023-12-14T17:11:23;4.90;99.90
20504;DHT22;10410;51.046;6.980;2023-12-14T17:18:23;4.90;99.90
20504;DHT22;10410;51.046;6.980;2023-12-14T17:25:24;4.90;99.90
20504;DHT22;10410;51.046;6.980;2023-12-14T17:32:24;5.00;99.90
20504;DHT22;10410;51.046;6.980;2023-12-14T17:39:25;5.00;99.90
20504;DHT22;10410;51.046;6.980;2023-12-14T17:46:25;5.00;99.90
20504;DHT22;10410;51.046;6.980;2023-12-14T17:53:26;5.00;99.90
20504;DHT22;10410;51.046;6.980;2023-12-14T18:00:27;5.00;99.90
20504;DHT22;10410;51.046;6.980;2023-12-14T18:07:27;5.00;99.90
20504;DHT22;10410;51.046;6.980;2023-12-14T18:14:27;5.00;99.90
20504;DHT22;10410;51.046;6.980;2023-12-14T18:21:28;5.00;99.90
20504;DHT22;10410;51.046;6.980;2023-12-14T18:28:28;5.00;99.90
20504;DHT22;10410;51.046;6.980;2023-12-14T18:35:29;5.00;99.90
20504;DHT22;10410;51.046;6.980;2023-12-14T18:42:30;4.90;99.90
20504;DHT22;10410;51.046;6.980;2023-12-14T18:49:30;4.90;99.90
20504;DHT22;10410;51.046;6.980;2023-12-14T18:56:34;4.80;99.90
20504;DHT22;10410;51.046;6.980;2023-12-14T19:03:35;4.80;99.90
20504;DHT22;10410;51.046;6.980;2023-12-14T19:10:37;4.80;99.90
20504;DHT22;10410;51.046;6.980;2023-12-14T19:17:38;4.80;99.90
20504;DHT22;10410;51.046;6.980;2023-12-14T19:24:40;4.70;99.90
20504;DHT22;10410;51.046;6.980;2023-12-14T19:31:41;4.70;99.90
20504;DHT22;10410;51.046;6.980;2023-12-14T19:38:43;4.70;99.90
20504;DHT22;10410;51.046;6.980;2023-12-14T19:45:44;4.70;99.90
20504;DHT22;10410;51.046;6.980;2023-12-14T19:52:44;4.60;99.90
20504;DHT22;10410;51.046;6.980;2023-12-14T19:59:45;4.60;99.90
20504;DHT22;10410;51.046;6.980;2023-12-14T20:06:48;4.60;99.90
20504;DHT22;10410;51.046;6.980;2023-12-14T20:13:50;4.60;99.90
20504;DHT22;10410;51.046;6.980;2023-12-14T20:20:51;4.60;99.90
20504;DHT22;10410;51.046;6.980;2023-12-14T20:27:52;4.60;99.90
20504;DHT22;10410;51.046;6.980;2023-12-14T20:34:53;4.70;99.90
20504;DHT22;10410;51.046;6.980;2023-12-14T20:41:54;4.80;99.90
20504;DHT22;10410;51.046;6.980;2023-12-14T20:48:54;4.80;99.90
20504;DHT22;10410;51.046;6.980;2023-12-14T20:55:55;4.90;99.90
20504;DHT22;10410;51.046;6.980;2023-12-14T21:02:56;4.90;99.90
20504;DHT22;10410;51.046;6.980;2023-12-14T21:09:56;5.00;99.90
20504;DHT22;10410;51.046;6.980;2023-12-14T21:16:56;5.00;99.90
20504;DHT22;10410;51.046;6.980;2023-12-14T21:23:57;5.10;99.90
20504;DHT22;10410;51.046;6.980;2023-12-14T21:30:58;5.10;99.90
20504;DHT22;10410;51.046;6.980;2023-12-14T21:37:59;5.20;99.90
20504;DHT22;10410;51.046;6.980;2023-12-14T21:44:59;5.20;99.90
20504;DHT22;10410;51.046;6.980;2023-12-14T21:52:00;5.30;99.90
20504;DHT22;10410;51.046;6.980;2023-12-14T21:59:00;5.30;99.90
20504;DHT22;10410;51.046;6.980;2023-12-14T22:06:01;5.30;99.90
20504;DHT22;10410;51.046;6.980;2023-12-14T22:13:01;5.30;99.90
20504;DHT22;10410;51.046;6.980;2023-12-14T22:20:02;5.30;99.90
20504;DHT22;10410;51.046;6.980;2023-12-14T22:27:03;5.30;99.90
20504;DHT22;10410;51.046;6.980;2023-12-14T22:34:04;5.30;99.90
20504;DHT22;10410;51.046;6.980;2023-12-14T22:41:04;5.30;99.90
20504;DHT22;10410;51.046;6.980;2023-12-14T22:48:05;5.30;99.90
20504;DHT22;10410;51.046;6.980;2023-12-14T22:55:06;5.30;99.90
20504;DHT22;10410;51.046;6.980;2023-12-14T23:02:10;5.30;99.90
20504;DHT22;10410;51.046;6.980;2023-12-14T23:09:10;5.30;99.90
20504;DHT22;10410;51.046;6.980;2023-12-14T23:16:12;5.30;99.90
20504;DHT22;10410;51.046;6.980;2023-12-14T23:23:13;5.20;99.90
20504;DHT22;10410;51.046;6.980;2023-12-14T23:30:14;5.20;99.90
20504;DHT22;10410;51.046;6.980;2023-12-14T23:37:14;5.20;99.90
20504;DHT22;10410;51.046;6.980;2023-12-14T23:44:14;5.10;99.90
20504;DHT22;10410;51.046;6.980;2023-12-14T23:51:15;5.00;99.90
20504;DHT22;10410;51.046;6.980;2023-12-14T23:58:16;4.90;99.90
